createdAt,value
2023-03-11T00:00:52.696Z,560.00
2023-03-11T00:01:52.736Z,565.00
2023-03-11T00:02:52.650Z,560.00
2023-03-11T00:03:52.628Z,560.00
2023-03-11T00:04:52.688Z,559.00
2023-03-11T00:05:52.626Z,561.00
2023-03-11T00:06:52.573Z,564.00
2023-03-11T00:07:52.550Z,569.00
2023-03-11T00:08:52.572Z,569.00
2023-03-11T00:09:52.550Z,571.00
2023-03-11T00:10:52.499Z,577.00
2023-03-11T00:11:52.478Z,572.00
2023-03-11T00:12:52.441Z,565.00
2023-03-11T00:13:52.416Z,573.00
2023-03-11T00:14:52.405Z,579.00
2023-03-11T00:15:52.415Z,570.00
2023-03-11T00:30:53.084Z,529.00
2023-03-11T00:43:52.524Z,517.00
2023-03-11T00:44:52.520Z,527.00
2023-03-11T05:43:45.180Z,779.00
2023-03-11T05:44:45.161Z,809.00
2023-03-11T05:45:45.181Z,837.00
2023-03-11T05:46:45.198Z,870.00
2023-03-11T05:47:45.098Z,892.00
2023-03-11T05:48:45.076Z,931.00
2023-03-11T05:49:45.079Z,950.00
2023-03-11T05:50:45.064Z,970.00
2023-03-11T05:51:45.022Z,1015.00
2023-03-11T05:52:44.995Z,1009.00
2023-03-11T05:53:45.005Z,1054.00
2023-03-11T05:54:44.945Z,1081.00
2023-03-11T05:55:44.934Z,1125.00
2023-03-11T05:56:44.975Z,1124.00
2023-03-11T05:57:44.870Z,1108.00
2023-03-11T05:58:44.856Z,1085.00
2023-03-11T05:59:44.865Z,1029.00
2023-03-11T06:00:44.815Z,995.00
2023-03-11T06:01:44.785Z,937.00
2023-03-11T06:02:44.790Z,923.00
2023-03-11T06:03:44.899Z,937.00
2023-03-11T06:04:44.808Z,882.00
2023-03-11T06:05:44.725Z,826.00
2023-03-11T06:06:44.727Z,878.00
2023-03-11T06:07:44.706Z,828.00
2023-03-11T06:08:44.657Z,750.00
2023-03-11T06:09:44.625Z,759.00
2023-03-11T06:10:44.830Z,703.00
2023-03-11T06:11:44.626Z,679.00
2023-03-11T06:12:44.568Z,658.00
2023-03-11T06:13:44.576Z,648.00
2023-03-11T06:14:44.549Z,644.00
2023-03-11T06:15:44.558Z,639.00
2023-03-11T06:16:44.499Z,628.00
2023-03-11T06:17:44.484Z,626.00
2023-03-11T06:18:44.464Z,637.00
2023-03-11T06:19:44.437Z,613.00
2023-03-11T06:20:44.442Z,631.00
2023-03-11T06:21:44.405Z,611.00
2023-03-11T06:22:44.410Z,604.00
2023-03-11T06:23:44.373Z,619.00
2023-03-11T06:24:44.366Z,587.00
2023-03-11T06:25:44.319Z,590.00
2023-03-11T06:26:44.353Z,595.00
2023-03-11T06:27:44.295Z,579.00
2023-03-11T06:28:44.285Z,581.00
2023-03-11T06:29:44.241Z,604.00
2023-03-11T06:30:44.272Z,590.00
2023-03-11T06:31:44.252Z,587.00
2023-03-11T06:32:44.300Z,573.00
2023-03-11T06:33:44.184Z,584.00
2023-03-11T06:34:44.208Z,599.00
2023-03-11T06:35:44.192Z,577.00
2023-03-11T06:36:44.164Z,567.00
2023-03-11T06:37:44.123Z,582.00
2023-03-11T06:38:44.106Z,568.00
2023-03-11T06:39:44.098Z,550.00
2023-03-11T06:40:44.087Z,543.00
2023-03-11T06:41:44.072Z,530.00
2023-03-11T06:42:44.020Z,526.00
2023-03-11T06:43:43.992Z,519.00
2023-03-11T06:44:43.976Z,534.00
2023-03-11T06:45:43.998Z,549.00
2023-03-11T06:46:43.971Z,551.00
2023-03-11T06:47:44.014Z,546.00
2023-03-11T06:48:43.894Z,551.00
2023-03-11T06:49:43.900Z,531.00
2023-03-11T06:50:44.424Z,522.00
2023-03-11T06:51:43.870Z,533.00
2023-03-11T06:52:43.844Z,577.00
2023-03-11T06:53:43.829Z,544.00
2023-03-11T06:54:43.779Z,529.00
2023-03-11T06:55:43.781Z,556.00
2023-03-11T06:56:43.774Z,551.00
2023-03-11T06:57:43.738Z,506.00
2023-03-11T06:58:43.712Z,514.00
2023-03-11T06:59:43.709Z,527.00
2023-03-11T07:00:43.695Z,534.00
2023-03-11T07:01:43.613Z,504.00
2023-03-11T07:02:43.653Z,522.00
2023-03-11T07:03:43.614Z,539.00
2023-03-11T07:04:43.560Z,541.00
2023-03-11T07:05:43.555Z,549.00
2023-03-11T07:06:43.559Z,543.00
2023-03-11T07:07:43.529Z,544.00
2023-03-11T07:08:43.487Z,549.00
2023-03-11T07:09:43.456Z,562.00
2023-03-11T07:10:43.430Z,582.00
2023-03-11T07:11:43.399Z,619.00
2023-03-11T07:12:43.393Z,652.00
2023-03-11T07:13:43.362Z,658.00
2023-03-11T07:14:43.327Z,722.00
2023-03-11T07:15:43.294Z,730.00
2023-03-11T07:16:43.358Z,784.00
2023-03-11T07:17:43.289Z,798.00
2023-03-11T07:18:43.251Z,813.00
2023-03-11T07:19:43.232Z,841.00
2023-03-11T07:20:43.204Z,881.00
2023-03-11T07:21:43.171Z,921.00
2023-03-11T07:22:43.170Z,955.00
2023-03-11T07:23:43.140Z,989.00
2023-03-11T07:24:43.142Z,986.00
2023-03-11T07:25:43.109Z,988.00
2023-03-11T07:26:44.471Z,996.00
2023-03-11T07:27:43.083Z,1023.00
2023-03-11T07:28:43.042Z,1071.00
2023-03-11T07:29:43.013Z,1148.00
2023-03-11T07:30:42.983Z,1166.00
2023-03-11T07:31:43.005Z,1204.00
2023-03-11T07:32:43.037Z,1201.00
2023-03-11T07:33:42.930Z,1197.00
2023-03-11T07:34:42.929Z,1130.00
2023-03-11T07:35:42.918Z,1101.00
2023-03-11T07:36:42.859Z,997.00
2023-03-11T07:37:42.821Z,950.00
2023-03-11T07:38:42.791Z,898.00
2023-03-11T07:39:42.800Z,858.00
2023-03-11T07:40:42.761Z,840.00
2023-03-11T07:41:42.771Z,795.00
2023-03-11T07:42:42.724Z,796.00
2023-03-11T07:43:42.692Z,757.00
2023-03-11T07:44:42.689Z,703.00
2023-03-11T07:45:42.689Z,713.00
2023-03-11T07:46:42.665Z,682.00
2023-03-11T07:47:42.634Z,641.00
2023-03-11T07:48:42.599Z,641.00
2023-03-11T07:49:42.597Z,639.00
2023-03-11T07:50:42.598Z,630.00
2023-03-11T07:51:42.557Z,644.00
2023-03-11T07:52:42.578Z,653.00
2023-03-11T07:53:42.540Z,661.00
2023-03-11T07:54:42.509Z,676.00
2023-03-11T07:55:42.518Z,735.00
2023-03-11T07:56:42.461Z,719.00
2023-03-11T07:57:42.444Z,773.00
2023-03-11T07:58:44.068Z,793.00
2023-03-11T07:59:42.411Z,828.00
2023-03-11T08:00:42.369Z,848.00
2023-03-11T08:01:42.348Z,898.00
2023-03-11T08:02:42.354Z,928.00
2023-03-11T08:03:42.384Z,969.00
2023-03-11T08:04:42.267Z,1035.00
2023-03-11T08:05:42.241Z,1063.00
2023-03-11T08:06:42.221Z,1057.00
2023-03-11T08:07:42.188Z,1087.00
2023-03-11T08:08:42.175Z,1110.00
2023-03-11T08:09:42.134Z,1113.00
2023-03-11T08:10:42.102Z,1123.00
2023-03-11T08:11:42.082Z,1139.00
2023-03-11T08:12:42.044Z,1161.00
2023-03-11T08:13:42.072Z,1169.00
2023-03-11T08:14:42.013Z,1150.00
2023-03-11T08:15:42.025Z,1158.00
2023-03-11T08:16:41.946Z,1158.00
2023-03-11T08:17:41.943Z,1173.00
2023-03-11T08:18:41.918Z,1170.00
2023-03-11T08:19:41.888Z,1240.00
2023-03-11T08:20:41.839Z,1267.00
2023-03-11T08:21:41.803Z,1229.00
2023-03-11T08:22:55.703Z,1153.00
2023-03-11T08:23:42.770Z,1138.00
2023-03-11T08:24:41.718Z,1079.00
2023-03-11T08:25:41.709Z,1024.00
2023-03-11T08:26:41.687Z,974.00
2023-03-11T08:27:41.666Z,949.00
2023-03-11T08:28:41.619Z,934.00
2023-03-11T08:29:41.668Z,950.00
2023-03-11T08:30:42.087Z,849.00
2023-03-11T08:31:41.526Z,795.00
2023-03-11T08:32:41.545Z,739.00
2023-03-11T08:33:41.477Z,756.00
2023-03-11T08:34:41.450Z,664.00
2023-03-11T08:35:41.444Z,824.00
2023-03-11T08:36:41.404Z,786.00
2023-03-11T08:37:41.364Z,735.00
2023-03-11T08:38:41.431Z,744.00
2023-03-11T08:39:41.328Z,770.00
2023-03-11T08:40:41.302Z,798.00
2023-03-11T08:41:41.269Z,840.00
2023-03-11T08:42:41.242Z,868.00
2023-03-11T08:43:41.204Z,909.00
2023-03-11T08:44:41.168Z,952.00
2023-03-11T08:45:41.170Z,987.00
2023-03-11T08:46:41.134Z,1020.00
2023-03-11T08:47:41.096Z,1021.00
2023-03-11T08:48:41.071Z,1029.00
2023-03-11T08:49:41.011Z,1051.00
2023-03-11T08:50:52.964Z,1097.00
2023-03-11T08:51:41.961Z,1025.00
2023-03-11T08:52:40.927Z,1047.00
2023-03-11T08:53:40.897Z,1089.00
2023-03-11T08:54:40.872Z,1162.00
2023-03-11T08:55:40.815Z,1263.00
2023-03-11T08:56:40.782Z,1289.00
2023-03-11T08:57:40.765Z,1310.00
2023-03-11T08:58:40.724Z,1344.00
2023-03-11T08:59:40.678Z,1350.00
2023-03-11T09:00:40.657Z,1370.00
2023-03-11T09:01:40.622Z,1406.00
2023-03-11T09:02:40.638Z,1423.00
2023-03-11T09:03:40.613Z,1445.00
2023-03-11T09:04:40.526Z,1453.00
2023-03-11T09:05:40.580Z,1488.00
2023-03-11T09:06:40.454Z,1491.00
2023-03-11T09:07:40.418Z,1509.00
2023-03-11T09:08:40.398Z,1516.00
2023-03-11T09:09:40.325Z,1511.00
2023-03-11T09:10:40.287Z,1532.00
2023-03-11T09:11:40.244Z,1525.00
2023-03-11T09:12:40.224Z,1527.00
2023-03-11T09:13:40.192Z,1516.00
2023-03-11T09:14:40.170Z,1521.00
2023-03-11T09:15:40.090Z,1549.00
2023-03-11T09:16:40.060Z,1508.00
2023-03-11T09:17:40.050Z,1528.00
2023-03-11T09:18:40.003Z,1550.00
2023-03-11T09:19:40.229Z,1561.00
2023-03-11T09:20:39.926Z,1546.00
2023-03-11T09:21:39.900Z,1569.00
2023-03-11T09:22:39.859Z,1557.00
2023-03-11T09:23:41.643Z,1577.00
2023-03-11T09:24:39.806Z,1577.00
2023-03-11T09:25:39.774Z,1559.00
2023-03-11T09:26:39.738Z,1518.00
2023-03-11T09:27:39.689Z,1569.00
2023-03-11T09:28:39.655Z,1568.00
2023-03-11T09:29:39.661Z,1568.00
2023-03-11T09:30:39.577Z,1552.00
2023-03-11T09:31:39.577Z,1599.00
2023-03-11T09:32:39.598Z,1564.00
2023-03-11T09:33:39.467Z,1566.00
2023-03-11T09:34:39.441Z,1560.00
2023-03-11T09:35:39.450Z,1601.00
2023-03-11T09:36:39.400Z,1600.00
2023-03-11T09:37:39.345Z,1587.00
2023-03-11T09:38:39.318Z,1571.00
2023-03-11T09:39:39.274Z,1581.00
2023-03-11T09:40:39.219Z,1607.00
2023-03-11T09:41:55.241Z,1594.00
2023-03-11T09:42:40.170Z,1596.00
2023-03-11T09:43:39.253Z,1603.00
2023-03-11T09:44:39.122Z,1604.00
2023-03-11T09:45:39.094Z,1616.00
2023-03-11T09:46:39.058Z,1650.00
2023-03-11T09:47:38.995Z,1653.00
2023-03-11T09:48:38.965Z,1642.00
2023-03-11T09:49:38.929Z,1636.00
2023-03-11T09:50:38.897Z,1609.00
2023-03-11T09:51:38.865Z,1609.00
2023-03-11T09:52:38.832Z,1610.00
2023-03-11T09:53:38.795Z,1611.00
2023-03-11T09:54:38.764Z,1595.00
2023-03-11T09:55:38.738Z,1607.00
2023-03-11T09:56:38.700Z,1593.00
2023-03-11T09:57:38.672Z,1617.00
2023-03-11T09:58:38.711Z,1618.00
2023-03-11T09:59:38.630Z,1603.00
2023-03-11T10:00:38.595Z,1616.00
2023-03-11T10:01:38.578Z,1649.00
2023-03-11T10:02:38.649Z,1583.00
2023-03-11T10:03:39.884Z,1580.00
2023-03-11T10:04:38.493Z,1602.00
2023-03-11T10:05:38.440Z,1597.00
2023-03-11T10:06:38.405Z,1640.00
2023-03-11T10:07:38.382Z,1669.00
2023-03-11T10:08:38.357Z,1695.00
2023-03-11T10:09:39.564Z,1708.00
2023-03-11T10:10:38.265Z,1720.00
2023-03-11T10:11:38.251Z,1727.00
2023-03-11T10:12:38.209Z,1730.00
2023-03-11T10:13:38.180Z,1747.00
2023-03-11T10:14:38.145Z,1747.00
2023-03-11T10:15:39.534Z,1750.00
2023-03-11T10:16:38.130Z,1717.00
2023-03-11T10:17:38.048Z,1715.00
2023-03-11T10:18:38.020Z,1689.00
2023-03-11T10:19:38.016Z,1665.00
2023-03-11T10:20:37.945Z,1684.00
2023-03-11T10:21:37.913Z,1644.00
2023-03-11T10:22:37.884Z,1683.00
2023-03-11T10:23:37.858Z,1701.00
2023-03-11T10:24:37.839Z,1681.00
2023-03-11T10:25:37.787Z,1700.00
2023-03-11T10:26:37.721Z,1675.00
2023-03-11T10:27:37.687Z,1675.00
2023-03-11T10:28:37.661Z,1678.00
2023-03-11T10:29:37.624Z,1682.00
2023-03-11T10:30:37.564Z,1684.00
2023-03-11T10:31:37.569Z,1673.00
2023-03-11T10:32:37.552Z,1621.00
2023-03-11T10:33:37.459Z,1679.00
2023-03-11T10:34:37.429Z,1635.00
2023-03-11T10:35:37.393Z,1641.00
2023-03-11T10:36:37.333Z,1636.00
2023-03-11T10:37:48.715Z,1676.00
2023-03-11T10:38:38.320Z,1676.00
2023-03-11T10:39:37.229Z,1668.00
2023-03-11T10:40:37.176Z,1680.00
2023-03-11T10:41:37.134Z,1676.00
2023-03-11T10:42:37.100Z,1634.00
2023-03-11T10:43:37.066Z,1672.00
2023-03-11T10:44:37.035Z,1703.00
2023-03-11T10:45:37.046Z,1717.00
2023-03-11T10:46:36.955Z,1734.00
2023-03-11T10:47:36.939Z,1735.00
2023-03-11T10:48:36.872Z,1742.00
2023-03-11T10:49:36.842Z,1744.00
2023-03-11T10:50:36.959Z,1771.00
2023-03-11T10:51:36.805Z,1767.00
2023-03-11T10:52:36.806Z,1776.00
2023-03-11T10:53:36.740Z,1785.00
2023-03-11T10:54:36.683Z,1788.00
2023-03-11T10:55:36.678Z,1802.00
2023-03-11T10:56:36.612Z,1809.00
2023-03-11T10:57:36.576Z,1805.00
2023-03-11T10:58:36.538Z,1813.00
2023-03-11T10:59:36.507Z,1818.00
2023-03-11T11:00:36.469Z,1816.00
2023-03-11T11:01:36.493Z,1817.00
2023-03-11T11:02:36.377Z,1802.00
2023-03-11T11:03:36.350Z,1790.00
2023-03-11T11:04:36.361Z,1783.00
2023-03-11T11:05:36.285Z,1757.00
2023-03-11T11:06:36.287Z,1749.00
2023-03-11T11:07:36.280Z,1716.00
2023-03-11T11:08:36.186Z,1713.00
2023-03-11T11:09:36.161Z,1710.00
2023-03-11T11:10:36.126Z,1722.00
2023-03-11T11:11:36.112Z,1717.00
2023-03-11T11:12:36.063Z,1723.00
2023-03-11T11:13:36.037Z,1715.00
2023-03-11T11:14:35.995Z,1652.00
2023-03-11T11:15:35.984Z,1687.00
2023-03-11T11:16:35.998Z,1635.00
2023-03-11T11:17:35.909Z,1639.00
2023-03-11T11:18:35.917Z,1639.00
2023-03-11T11:19:35.804Z,1643.00
2023-03-11T11:20:35.769Z,1620.00
2023-03-11T11:21:35.756Z,1642.00
2023-03-11T11:22:35.703Z,1614.00
2023-03-11T11:23:35.682Z,1577.00
2023-03-11T11:24:35.670Z,1618.00
2023-03-11T11:25:35.717Z,1547.00
2023-03-11T11:26:35.588Z,1532.00
2023-03-11T11:27:35.569Z,1561.00
2023-03-11T11:28:35.505Z,1574.00
2023-03-11T11:29:35.447Z,1560.00
2023-03-11T11:30:35.441Z,1515.00
2023-03-11T11:31:35.386Z,1501.00
2023-03-11T11:32:35.354Z,1538.00
2023-03-11T11:33:35.299Z,1546.00
2023-03-11T11:34:35.278Z,1582.00
2023-03-11T11:35:35.244Z,1580.00
2023-03-11T11:36:35.202Z,1594.00
2023-03-11T11:37:35.157Z,1629.00
2023-03-11T11:38:35.135Z,1625.00
2023-03-11T11:39:35.082Z,1665.00
2023-03-11T11:40:35.054Z,1655.00
2023-03-11T11:41:35.044Z,1664.00
2023-03-11T11:42:34.984Z,1670.00
2023-03-11T11:43:34.983Z,1689.00
2023-03-11T11:44:34.908Z,1689.00
2023-03-11T11:45:34.887Z,1687.00
2023-03-11T11:46:34.831Z,1706.00
2023-03-11T11:47:34.947Z,1708.00
2023-03-11T11:48:34.741Z,1713.00
2023-03-11T11:49:34.716Z,1715.00
2023-03-11T11:50:34.681Z,1727.00
2023-03-11T11:51:34.623Z,1734.00
2023-03-11T11:52:34.598Z,1740.00
2023-03-11T11:53:34.540Z,1734.00
2023-03-11T11:54:34.509Z,1749.00
2023-03-11T11:55:34.476Z,1750.00
2023-03-11T11:56:34.469Z,1750.00
2023-03-11T11:57:34.409Z,1751.00
2023-03-11T11:58:34.384Z,1754.00
2023-03-11T11:59:34.326Z,1758.00
2023-03-11T12:00:34.319Z,1790.00
2023-03-11T12:01:34.267Z,1773.00
2023-03-11T12:02:34.212Z,1785.00
2023-03-11T12:03:34.206Z,1789.00
2023-03-11T12:04:34.154Z,1776.00
2023-03-11T12:05:34.168Z,1787.00
2023-03-11T12:06:34.082Z,1787.00
2023-03-11T12:07:34.017Z,1790.00
2023-03-11T12:08:33.987Z,1787.00
2023-03-11T12:09:33.956Z,1795.00
2023-03-11T12:10:33.951Z,1808.00
2023-03-11T12:11:33.917Z,1798.00
2023-03-11T12:12:33.885Z,1793.00
2023-03-11T12:13:33.860Z,1800.00
2023-03-11T12:14:33.807Z,1798.00
2023-03-11T12:15:33.817Z,1792.00
2023-03-11T12:16:33.749Z,1799.00
2023-03-11T12:17:33.717Z,1792.00
2023-03-11T12:18:33.661Z,1794.00
2023-03-11T12:19:33.637Z,1799.00
2023-03-11T12:20:33.597Z,1805.00
2023-03-11T12:21:33.561Z,1805.00
2023-03-11T12:22:33.535Z,1800.00
2023-03-11T12:23:33.487Z,1793.00
2023-03-11T12:24:33.429Z,1798.00
2023-03-11T12:25:33.405Z,1794.00
2023-03-11T12:26:33.372Z,1793.00
2023-03-11T12:27:33.339Z,1793.00
2023-03-11T12:28:33.304Z,1802.00
2023-03-11T12:29:33.282Z,1790.00
2023-03-11T12:30:33.245Z,1794.00
2023-03-11T12:31:33.239Z,1790.00
2023-03-11T12:32:33.193Z,1802.00
2023-03-11T12:33:33.127Z,1792.00
2023-03-11T12:34:33.092Z,1792.00
2023-03-11T12:35:33.080Z,1787.00
2023-03-11T12:36:33.033Z,1788.00
2023-03-11T12:37:33.018Z,1790.00
2023-03-11T12:38:32.955Z,1787.00
2023-03-11T12:39:32.903Z,1796.00
2023-03-11T12:40:32.856Z,1797.00
2023-03-11T12:41:32.834Z,1791.00
2023-03-11T12:42:32.782Z,1776.00
2023-03-11T12:43:32.753Z,1788.00
2023-03-11T12:44:32.718Z,1782.00
2023-03-11T12:45:32.668Z,1783.00
2023-03-11T12:46:32.737Z,1797.00
2023-03-11T12:47:35.606Z,1781.00
2023-03-11T12:48:32.578Z,1795.00
2023-03-11T12:49:32.542Z,1798.00
2023-03-11T12:50:32.494Z,1774.00
2023-03-11T12:51:32.466Z,1779.00
2023-03-11T12:52:32.408Z,1785.00
2023-03-11T12:53:32.356Z,1785.00
2023-03-11T12:54:32.415Z,1774.00
2023-03-11T12:55:32.286Z,1791.00
2023-03-11T12:56:32.257Z,1769.00
2023-03-11T12:57:32.263Z,1773.00
2023-03-11T12:58:32.188Z,1776.00
2023-03-11T12:59:32.170Z,1774.00
2023-03-11T13:00:32.111Z,1769.00
2023-03-11T13:01:32.093Z,1770.00
2023-03-11T13:02:32.093Z,1772.00
2023-03-11T13:03:32.028Z,1770.00
2023-03-11T13:04:31.989Z,1772.00
2023-03-11T13:05:31.968Z,1769.00
2023-03-11T13:06:31.913Z,1770.00
2023-03-11T13:07:31.869Z,1765.00
2023-03-11T13:08:31.804Z,1766.00
2023-03-11T13:09:31.885Z,1752.00
2023-03-11T13:10:31.749Z,1761.00
2023-03-11T13:11:31.715Z,1768.00
2023-03-11T13:12:31.708Z,1758.00
2023-03-11T13:13:31.674Z,1751.00
2023-03-11T13:14:31.620Z,1766.00
2023-03-11T13:15:31.583Z,1764.00
2023-03-11T13:16:31.587Z,1762.00
2023-03-11T13:17:31.499Z,1752.00
2023-03-11T13:18:31.465Z,1756.00
2023-03-11T13:19:31.409Z,1757.00
2023-03-11T13:20:31.381Z,1761.00
2023-03-11T13:21:31.357Z,1763.00
2023-03-11T13:22:31.338Z,1746.00
2023-03-11T13:23:31.266Z,1746.00
2023-03-11T13:24:31.236Z,1750.00
2023-03-11T13:25:31.202Z,1746.00
2023-03-11T13:26:31.209Z,1746.00
2023-03-11T13:27:31.355Z,1755.00
2023-03-11T13:28:31.111Z,1750.00
2023-03-11T13:29:31.081Z,1741.00
2023-03-11T13:30:30.998Z,1753.00
2023-03-11T13:31:31.059Z,1731.00
2023-03-11T13:32:31.029Z,1744.00
2023-03-11T13:33:30.896Z,1733.00
2023-03-11T13:34:30.867Z,1736.00
2023-03-11T13:35:30.836Z,1739.00
2023-03-11T13:36:30.800Z,1738.00
2023-03-11T13:37:30.823Z,1737.00
2023-03-11T13:38:30.736Z,1735.00
2023-03-11T13:39:30.692Z,1736.00
2023-03-11T13:40:30.643Z,1739.00
2023-03-11T13:41:30.623Z,1735.00
2023-03-11T13:42:30.618Z,1727.00
2023-03-11T13:43:30.545Z,1730.00
2023-03-11T13:44:30.503Z,1727.00
2023-03-11T13:45:30.493Z,1729.00
2023-03-11T13:46:30.430Z,1727.00
2023-03-11T13:47:30.401Z,1734.00
2023-03-11T13:48:30.346Z,1713.00
2023-03-11T13:49:30.392Z,1731.00
2023-03-11T13:50:30.289Z,1710.00
2023-03-11T13:51:30.251Z,1711.00
2023-03-11T13:52:30.220Z,1714.00
2023-03-11T13:53:30.193Z,1715.00
2023-03-11T13:54:30.156Z,1722.00
2023-03-11T13:55:30.085Z,1706.00
2023-03-11T13:56:30.059Z,1708.00
2023-03-11T13:57:30.020Z,1711.00
2023-03-11T13:58:30.012Z,1703.00
2023-03-11T13:59:29.966Z,1689.00
2023-03-11T14:00:29.926Z,1706.00
2023-03-11T14:01:29.936Z,1708.00
2023-03-11T14:02:29.859Z,1708.00
2023-03-11T14:03:29.818Z,1709.00
2023-03-11T14:04:29.774Z,1718.00
2023-03-11T14:05:29.732Z,1703.00
2023-03-11T14:06:29.699Z,1698.00
2023-03-11T14:07:29.746Z,1699.00
2023-03-11T14:08:29.654Z,1708.00
2023-03-11T14:09:29.596Z,1705.00
2023-03-11T14:10:29.581Z,1696.00
2023-03-11T14:11:29.578Z,1710.00
2023-03-11T14:12:29.484Z,1699.00
2023-03-11T14:13:29.453Z,1696.00
2023-03-11T14:14:29.432Z,1715.00
2023-03-11T14:15:29.396Z,1691.00
2023-03-11T14:16:29.386Z,1714.00
2023-03-11T14:17:29.302Z,1678.00
2023-03-11T14:18:29.269Z,1692.00
2023-03-11T14:19:29.257Z,1713.00
2023-03-11T14:20:29.282Z,1684.00
2023-03-11T14:21:29.170Z,1687.00
2023-03-11T14:22:29.129Z,1681.00
2023-03-11T14:23:29.128Z,1697.00
2023-03-11T14:24:29.060Z,1692.00
2023-03-11T14:25:29.034Z,1675.00
2023-03-11T14:26:29.009Z,1695.00
2023-03-11T14:27:28.936Z,1681.00
2023-03-11T14:28:28.941Z,1678.00
2023-03-11T14:29:28.875Z,1668.00
2023-03-11T14:30:28.836Z,1705.00
2023-03-11T14:31:28.877Z,1693.00
2023-03-11T14:32:28.890Z,1690.00
2023-03-11T14:33:28.745Z,1698.00
2023-03-11T14:34:28.732Z,1675.00
2023-03-11T14:35:28.673Z,1679.00
2023-03-11T14:36:28.644Z,1682.00
2023-03-11T14:37:28.587Z,1690.00
2023-03-11T14:38:28.576Z,1673.00
2023-03-11T14:39:28.559Z,1699.00
2023-03-11T14:40:28.488Z,1674.00
2023-03-11T14:41:28.447Z,1683.00
2023-03-11T14:42:28.406Z,1681.00
2023-03-11T14:43:28.381Z,1674.00
2023-03-11T14:44:28.358Z,1668.00
2023-03-11T14:45:28.318Z,1670.00
2023-03-11T14:46:28.291Z,1673.00
2023-03-11T14:47:28.282Z,1675.00
2023-03-11T14:48:28.220Z,1688.00
2023-03-11T14:49:28.193Z,1699.00
2023-03-11T14:50:28.179Z,1689.00
2023-03-11T14:51:28.161Z,1664.00
2023-03-11T14:52:28.156Z,1686.00
2023-03-11T14:53:28.062Z,1681.00
2023-03-11T14:54:28.050Z,1667.00
2023-03-11T14:55:27.995Z,1679.00
2023-03-11T14:56:27.995Z,1680.00
2023-03-11T14:57:27.929Z,1692.00
2023-03-11T14:58:27.896Z,1676.00
2023-03-11T14:59:27.892Z,1662.00
2023-03-11T15:00:27.832Z,1674.00
2023-03-11T15:01:27.836Z,1673.00
2023-03-11T15:02:27.746Z,1679.00
2023-03-11T15:03:27.763Z,1676.00
2023-03-11T15:04:27.709Z,1679.00
2023-03-11T15:05:27.639Z,1681.00
2023-03-11T15:06:27.605Z,1681.00
2023-03-11T15:07:27.599Z,1677.00
2023-03-11T15:08:27.551Z,1670.00
2023-03-11T15:09:27.505Z,1665.00
2023-03-11T15:10:27.477Z,1668.00
2023-03-11T15:11:27.448Z,1666.00
2023-03-11T15:12:27.432Z,1664.00
2023-03-11T15:13:27.407Z,1672.00
2023-03-11T15:14:27.381Z,1661.00
2023-03-11T15:15:27.350Z,1664.00
2023-03-11T15:16:27.418Z,1671.00
2023-03-11T15:17:36.486Z,1656.00
2023-03-11T15:18:28.275Z,1657.00
2023-03-11T15:19:27.397Z,1658.00
2023-03-11T15:20:27.212Z,1663.00
2023-03-11T15:21:27.176Z,1665.00
2023-03-11T15:22:27.157Z,1669.00
2023-03-11T15:23:27.130Z,1657.00
2023-03-11T15:24:27.884Z,1670.00
2023-03-11T15:25:27.059Z,1656.00
2023-03-11T15:26:27.059Z,1660.00
2023-03-11T15:27:27.034Z,1669.00
2023-03-11T15:28:26.970Z,1662.00
2023-03-11T15:29:26.956Z,1652.00
2023-03-11T15:30:26.930Z,1659.00
2023-03-11T15:31:26.895Z,1646.00
2023-03-11T15:32:26.833Z,1654.00
2023-03-11T15:33:26.831Z,1653.00
2023-03-11T15:34:26.807Z,1652.00
2023-03-11T15:35:26.795Z,1661.00
2023-03-11T15:36:26.730Z,1655.00
2023-03-11T15:37:26.729Z,1646.00
2023-03-11T15:38:26.668Z,1644.00
2023-03-11T15:39:26.676Z,1650.00
2023-03-11T15:40:42.297Z,1639.00
2023-03-11T15:41:27.599Z,1641.00
2023-03-11T15:42:26.589Z,1642.00
2023-03-11T15:43:26.527Z,1645.00
2023-03-11T15:44:26.514Z,1652.00
2023-03-11T15:45:26.481Z,1641.00
2023-03-11T15:46:26.451Z,1639.00
2023-03-11T15:47:26.441Z,1644.00
2023-03-11T15:48:26.406Z,1652.00
2023-03-11T15:49:26.372Z,1634.00
2023-03-11T15:50:34.498Z,1636.00
2023-03-11T15:51:27.332Z,1637.00
2023-03-11T15:52:26.286Z,1637.00
2023-03-11T15:53:26.283Z,1642.00
2023-03-11T15:54:26.222Z,1633.00
2023-03-11T15:55:26.242Z,1640.00
2023-03-11T15:56:26.169Z,1637.00
2023-03-11T15:57:26.173Z,1638.00
2023-03-11T15:58:26.118Z,1639.00
2023-03-11T15:59:26.083Z,1636.00
2023-03-11T16:00:26.053Z,1629.00
2023-03-11T16:01:26.035Z,1649.00
2023-03-11T16:02:26.012Z,1616.00
2023-03-11T16:03:25.972Z,1640.00
2023-03-11T16:04:26.043Z,1625.00
2023-03-11T16:05:25.931Z,1624.00
2023-03-11T16:06:25.881Z,1640.00
2023-03-11T16:07:38.799Z,1628.00
2023-03-11T16:08:26.832Z,1629.00
2023-03-11T16:09:25.792Z,1622.00
2023-03-11T16:10:25.812Z,1613.00
2023-03-11T16:11:25.758Z,1611.00
2023-03-11T16:12:25.714Z,1606.00
2023-03-11T16:13:25.694Z,1583.00
2023-03-11T16:14:25.661Z,1592.00
2023-03-11T16:15:25.630Z,1583.00
2023-03-11T16:16:25.643Z,1553.00
2023-03-11T16:17:25.588Z,1565.00
2023-03-11T16:18:25.567Z,1573.00
2023-03-11T16:19:25.559Z,1530.00
2023-03-11T16:20:25.488Z,1522.00
2023-03-11T16:21:25.452Z,1518.00
2023-03-11T16:22:25.435Z,1517.00
2023-03-11T16:23:25.434Z,1506.00
2023-03-11T16:24:25.394Z,1505.00
2023-03-11T16:25:25.371Z,1502.00
2023-03-11T16:26:25.353Z,1476.00
2023-03-11T16:27:25.324Z,1493.00
2023-03-11T16:28:25.295Z,1485.00
2023-03-11T16:29:25.261Z,1485.00
2023-03-11T16:30:25.247Z,1481.00
2023-03-11T16:31:25.252Z,1467.00
2023-03-11T16:32:25.285Z,1482.00
2023-03-11T16:33:25.169Z,1470.00
2023-03-11T16:34:25.152Z,1468.00
2023-03-11T16:35:25.205Z,1463.00
2023-03-11T16:36:25.086Z,1461.00
2023-03-11T16:37:25.061Z,1452.00
2023-03-11T16:38:25.029Z,1447.00
2023-03-11T16:39:25.018Z,1452.00
2023-03-11T16:40:25.036Z,1456.00
2023-03-11T16:41:24.973Z,1449.00
2023-03-11T16:42:24.930Z,1452.00
2023-03-11T16:43:24.904Z,1449.00
2023-03-11T16:44:24.895Z,1445.00
2023-03-11T16:45:24.901Z,1453.00
2023-03-11T16:46:24.869Z,1451.00
2023-03-11T16:47:24.836Z,1448.00
2023-03-11T16:48:24.784Z,1454.00
2023-03-11T16:49:24.773Z,1464.00
2023-03-11T16:50:24.768Z,1463.00
2023-03-11T16:51:24.710Z,1455.00
2023-03-11T16:52:24.734Z,1460.00
2023-03-11T16:53:24.643Z,1462.00
2023-03-11T16:54:24.637Z,1456.00
2023-03-11T16:55:24.620Z,1470.00
2023-03-11T16:56:24.584Z,1457.00
2023-03-11T16:57:24.543Z,1476.00
2023-03-11T16:58:24.523Z,1473.00
2023-03-11T16:59:24.494Z,1468.00
2023-03-11T17:00:24.476Z,1470.00
2023-03-11T17:01:24.464Z,1468.00
2023-03-11T17:02:24.701Z,1470.00
2023-03-11T17:03:25.995Z,1477.00
2023-03-11T17:04:24.355Z,1475.00
2023-03-11T17:05:24.355Z,1465.00
2023-03-11T17:06:24.308Z,1476.00
2023-03-11T17:07:24.296Z,1475.00
2023-03-11T17:08:24.242Z,1467.00
2023-03-11T17:09:24.225Z,1465.00
2023-03-11T17:10:24.199Z,1472.00
2023-03-11T17:11:24.162Z,1463.00
2023-03-11T17:12:24.129Z,1469.00
2023-03-11T17:13:24.098Z,1479.00
2023-03-11T17:14:24.065Z,1483.00
2023-03-11T17:15:24.036Z,1474.00
2023-03-11T17:16:24.117Z,1472.00
2023-03-11T17:17:23.986Z,1471.00
2023-03-11T17:18:23.970Z,1468.00
2023-03-11T17:19:23.949Z,1472.00
2023-03-11T17:20:23.905Z,1465.00
2023-03-11T17:21:23.924Z,1473.00
2023-03-11T17:22:23.871Z,1470.00
2023-03-11T17:23:23.842Z,1473.00
2023-03-11T17:24:23.815Z,1461.00
2023-03-11T17:25:23.786Z,1472.00
2023-03-11T17:26:23.762Z,1469.00
2023-03-11T17:27:23.731Z,1459.00
2023-03-11T17:28:23.685Z,1459.00
2023-03-11T17:29:23.651Z,1470.00
2023-03-11T17:30:36.035Z,1457.00
2023-03-11T17:31:24.738Z,1459.00
2023-03-11T17:32:23.615Z,1461.00
2023-03-11T17:33:23.550Z,1464.00
2023-03-11T17:34:23.524Z,1467.00